createdAt,value
2018-08-17T00:00:52.898Z,0
2018-08-17T00:02:02.473Z,0
2018-08-17T00:03:11.785Z,0
2018-08-17T00:04:21.158Z,0
2018-08-17T00:05:30.657Z,0
2018-08-17T00:06:40.399Z,0
2018-08-17T00:07:49.509Z,0
2018-08-17T00:08:59.465Z,0
2018-08-17T00:10:08.518Z,0
2018-08-17T00:11:17.879Z,0
2018-08-17T00:12:27.336Z,0
2018-08-17T00:13:37.198Z,0
2018-08-17T00:14:46.469Z,0
2018-08-17T00:15:56.294Z,0
2018-08-17T00:17:05.649Z,0
2018-08-17T00:18:15.139Z,0
2018-08-17T00:19:24.454Z,0
2018-08-17T00:20:33.321Z,0
2018-08-17T00:21:42.966Z,0
2018-08-17T00:22:52.581Z,0
2018-08-17T00:24:01.659Z,0
2018-08-17T00:25:11.285Z,0
2018-08-17T00:26:20.684Z,0
2018-08-17T00:27:30.371Z,0
2018-08-17T00:28:39.779Z,0
2018-08-17T00:29:48.808Z,0
2018-08-17T00:30:57.907Z,0
2018-08-17T00:32:07.472Z,0
2018-08-17T00:33:17.466Z,0
2018-08-17T00:34:26.579Z,0
2018-08-17T00:35:36.209Z,0
2018-08-17T00:36:45.491Z,0
2018-08-17T00:37:54.366Z,0
2018-08-17T00:39:03.179Z,0
2018-08-17T00:40:12.955Z,0
2018-08-17T00:41:22.099Z,0
2018-08-17T00:42:31.575Z,0
2018-08-17T00:43:40.953Z,0
2018-08-17T00:44:50.551Z,0
2018-08-17T00:46:00.087Z,0
2018-08-17T00:47:09.397Z,0
2018-08-17T00:48:19.555Z,0
2018-08-17T00:49:28.771Z,0
2018-08-17T00:50:37.549Z,0
2018-08-17T00:51:46.923Z,0
2018-08-17T00:52:56.170Z,0
2018-08-17T00:54:04.936Z,0
2018-08-17T00:55:13.671Z,0
2018-08-17T00:56:23.228Z,0
2018-08-17T00:57:32.633Z,0
2018-08-17T00:58:42.172Z,0
2018-08-17T00:59:51.757Z,0
2018-08-17T01:01:02.259Z,0
2018-08-17T01:02:11.880Z,0
2018-08-17T01:03:21.407Z,0
2018-08-17T01:04:30.545Z,0
2018-08-17T01:05:39.735Z,0
2018-08-17T01:06:49.339Z,0
2018-08-17T01:07:58.671Z,0
2018-08-17T01:09:07.897Z,0
2018-08-17T01:10:17.212Z,0
2018-08-17T01:11:26.327Z,0
2018-08-17T01:12:35.150Z,0
2018-08-17T01:13:45.400Z,0
2018-08-17T01:14:54.477Z,0
2018-08-17T01:16:03.271Z,0
2018-08-17T01:17:13.085Z,0
2018-08-17T01:18:22.357Z,0
2018-08-17T01:19:31.491Z,0
2018-08-17T01:20:40.593Z,0
2018-08-17T01:21:50.293Z,0
2018-08-17T01:22:59.853Z,0
2018-08-17T01:24:08.572Z,0
2018-08-17T01:25:17.831Z,0
2018-08-17T01:26:27.386Z,0
2018-08-17T01:27:36.681Z,0
2018-08-17T01:28:45.973Z,0
2018-08-17T01:29:55.025Z,0
2018-08-17T01:31:04.857Z,0
2018-08-17T01:32:14.120Z,0
2018-08-17T01:33:23.516Z,0
2018-08-17T01:34:32.738Z,0
2018-08-17T01:35:42.170Z,0
2018-08-17T01:36:51.284Z,0
2018-08-17T01:38:01.294Z,0
2018-08-17T01:39:10.345Z,0
2018-08-17T01:40:19.692Z,0
2018-08-17T01:41:28.925Z,0
2018-08-17T01:42:38.195Z,0
2018-08-17T01:43:47.693Z,0
2018-08-17T01:44:56.944Z,0
2018-08-17T01:46:06.758Z,0
2018-08-17T01:47:16.435Z,0
2018-08-17T01:48:25.454Z,0
2018-08-17T01:49:34.662Z,0
2018-08-17T01:50:44.136Z,0
2018-08-17T01:51:54.253Z,0
2018-08-17T01:53:03.775Z,0
2018-08-17T01:54:12.816Z,0
2018-08-17T01:55:22.286Z,0
2018-08-17T01:56:31.867Z,0
2018-08-17T01:57:41.559Z,0
2018-08-17T01:58:50.576Z,0
2018-08-17T01:59:59.858Z,0
2018-08-17T02:01:09.371Z,0
2018-08-17T02:02:18.572Z,0
2018-08-17T02:03:27.835Z,0
2018-08-17T02:04:37.257Z,0
2018-08-17T02:05:46.774Z,0
2018-08-17T02:06:56.298Z,0
2018-08-17T02:08:05.290Z,0
2018-08-17T02:09:14.805Z,0
2018-08-17T02:10:23.564Z,0
2018-08-17T02:11:33.029Z,0
2018-08-17T02:12:42.271Z,0
2018-08-17T02:13:51.515Z,0
2018-08-17T02:15:00.759Z,0
2018-08-17T02:16:10.352Z,0
2018-08-17T02:17:20.357Z,0
2018-08-17T02:18:30.284Z,0
2018-08-17T02:19:39.781Z,0
2018-08-17T02:20:49.289Z,0
2018-08-17T02:21:58.580Z,0
2018-08-17T02:23:07.869Z,0
2018-08-17T02:24:17.133Z,0
2018-08-17T02:25:26.448Z,0
2018-08-17T02:26:35.941Z,0
2018-08-17T02:27:44.756Z,0
2018-08-17T02:28:54.031Z,0
2018-08-17T02:30:03.054Z,0
2018-08-17T02:31:12.003Z,0
2018-08-17T02:32:21.900Z,0
2018-08-17T02:33:30.958Z,0
2018-08-17T02:34:40.029Z,0
2018-08-17T02:35:49.250Z,0
2018-08-17T02:36:58.688Z,0
2018-08-17T02:38:08.509Z,0
2018-08-17T02:39:17.516Z,0
2018-08-17T02:40:26.762Z,0
2018-08-17T02:41:36.377Z,0
2018-08-17T02:42:45.916Z,0
2018-08-17T02:43:55.254Z,0
2018-08-17T02:45:04.871Z,0
2018-08-17T02:46:14.209Z,0
2018-08-17T02:47:23.640Z,0
2018-08-17T02:48:33.071Z,0
2018-08-17T02:49:42.727Z,0
2018-08-17T02:50:52.071Z,0
2018-08-17T02:52:01.970Z,0
2018-08-17T02:53:11.155Z,0
2018-08-17T02:54:20.510Z,0
2018-08-17T02:55:30.017Z,0
2018-08-17T02:56:39.215Z,0
2018-08-17T02:57:48.588Z,0
2018-08-17T02:58:58.211Z,0
2018-08-17T03:00:07.881Z,0
2018-08-17T03:01:17.486Z,0
2018-08-17T03:02:27.343Z,0
2018-08-17T03:03:36.414Z,0
2018-08-17T03:04:46.071Z,0
2018-08-17T03:05:55.923Z,0
2018-08-17T03:07:04.938Z,0
2018-08-17T03:08:13.957Z,0
2018-08-17T03:09:23.337Z,0
2018-08-17T03:10:33.020Z,0
2018-08-17T03:11:42.900Z,0
2018-08-17T03:12:52.974Z,0
2018-08-17T03:14:02.608Z,0
2018-08-17T03:15:12.533Z,0
2018-08-17T03:16:21.814Z,0
2018-08-17T03:17:31.780Z,0
2018-08-17T03:18:40.849Z,0
2018-08-17T03:19:49.653Z,0
2018-08-17T03:20:59.317Z,0
2018-08-17T03:22:08.641Z,0
2018-08-17T03:23:18.307Z,0
2018-08-17T03:24:27.945Z,0
2018-08-17T03:25:37.846Z,0
2018-08-17T03:26:47.414Z,0
2018-08-17T03:27:56.812Z,0
2018-08-17T03:29:06.085Z,0
2018-08-17T03:30:15.111Z,0
2018-08-17T03:31:25.237Z,0
2018-08-17T03:32:34.300Z,0
2018-08-17T03:33:43.614Z,0
2018-08-17T03:34:53.289Z,0
2018-08-17T03:36:02.359Z,0
2018-08-17T03:37:11.916Z,0
2018-08-17T03:38:21.638Z,0
2018-08-17T03:39:30.452Z,0
2018-08-17T03:40:39.797Z,0
2018-08-17T03:41:49.911Z,0
2018-08-17T03:42:59.279Z,0
2018-08-17T03:44:08.563Z,0
2018-08-17T03:45:17.625Z,0
2018-08-17T03:46:26.703Z,0
2018-08-17T03:47:36.146Z,0
2018-08-17T03:48:45.440Z,0
2018-08-17T03:49:54.250Z,0
2018-08-17T03:51:03.828Z,0
2018-08-17T03:52:12.860Z,0
2018-08-17T03:53:21.873Z,0
2018-08-17T03:54:31.262Z,0
2018-08-17T03:55:40.118Z,0
2018-08-17T03:56:49.200Z,0
2018-08-17T03:57:58.517Z,0
2018-08-17T03:59:08.060Z,0
2018-08-17T04:00:17.762Z,0
2018-08-17T04:01:26.854Z,0
2018-08-17T04:02:36.382Z,0
2018-08-17T04:03:45.701Z,0
2018-08-17T04:04:55.393Z,0
2018-08-17T04:06:04.620Z,0
2018-08-17T04:07:14.508Z,0
2018-08-17T04:08:23.619Z,0
2018-08-17T04:09:33.075Z,0
2018-08-17T04:10:42.371Z,0
2018-08-17T04:11:51.764Z,0
2018-08-17T04:13:01.937Z,0
2018-08-17T04:14:11.037Z,0
2018-08-17T04:15:20.473Z,0
2018-08-17T04:16:29.816Z,0
2018-08-17T04:17:39.138Z,0
2018-08-17T04:18:48.437Z,0
2018-08-17T04:19:57.993Z,0
2018-08-17T04:21:07.316Z,0
2018-08-17T04:22:16.405Z,0
2018-08-17T04:23:25.499Z,0
2018-08-17T04:24:34.271Z,0
2018-08-17T04:25:44.200Z,0
2018-08-17T04:26:53.877Z,0
2018-08-17T04:28:03.221Z,0
2018-08-17T04:29:12.777Z,0
2018-08-17T04:30:22.436Z,0
2018-08-17T04:31:31.836Z,0
2018-08-17T04:32:41.003Z,0
2018-08-17T04:33:50.345Z,0
2018-08-17T04:34:59.606Z,0
2018-08-17T04:36:09.052Z,0
2018-08-17T04:37:18.359Z,0
2018-08-17T04:38:27.205Z,0
2018-08-17T04:39:36.759Z,0
2018-08-17T04:40:45.841Z,0
2018-08-17T04:41:54.857Z,0
2018-08-17T04:43:03.673Z,0
2018-08-17T04:44:13.131Z,0
2018-08-17T04:45:22.647Z,0
2018-08-17T04:46:32.260Z,0
2018-08-17T04:47:41.284Z,0
2018-08-17T04:48:51.017Z,0
2018-08-17T04:49:59.771Z,0
2018-08-17T04:51:09.569Z,0
2018-08-17T04:52:18.822Z,0
2018-08-17T04:53:27.914Z,0
2018-08-17T04:54:36.904Z,4
2018-08-17T04:55:45.675Z,0
2018-08-17T04:56:55.251Z,0
2018-08-17T04:58:04.511Z,0
2018-08-17T04:59:14.292Z,0
2018-08-17T05:00:24.153Z,0
2018-08-17T05:01:34.020Z,0
2018-08-17T05:02:43.308Z,4
2018-08-17T05:03:52.847Z,4
2018-08-17T05:05:02.320Z,0
2018-08-17T05:06:12.071Z,0
2018-08-17T05:07:21.081Z,0
2018-08-17T05:08:30.085Z,0
2018-08-17T05:09:39.705Z,0
2018-08-17T05:10:49.284Z,0
2018-08-17T05:11:58.011Z,0
2018-08-17T05:13:07.270Z,0
2018-08-17T05:14:16.696Z,4
2018-08-17T05:15:26.519Z,4
2018-08-17T05:16:36.153Z,4
2018-08-17T05:17:45.446Z,0
2018-08-17T05:18:54.703Z,4
2018-08-17T05:20:03.473Z,4
2018-08-17T05:21:13.006Z,4
2018-08-17T05:22:22.377Z,4
2018-08-17T05:23:31.478Z,4
2018-08-17T05:24:40.741Z,4
2018-08-17T05:25:50.383Z,4
2018-08-17T05:26:59.437Z,4
2018-08-17T05:28:09.538Z,4
2018-08-17T05:29:19.374Z,4
2018-08-17T05:30:28.892Z,4
2018-08-17T05:31:38.504Z,4
2018-08-17T05:32:48.588Z,4
2018-08-17T05:33:58.118Z,4
2018-08-17T05:35:07.991Z,4
2018-08-17T05:36:17.782Z,4
2018-08-17T05:37:26.836Z,4
2018-08-17T05:38:36.092Z,4
2018-08-17T05:39:45.179Z,0
2018-08-17T05:40:54.735Z,4
2018-08-17T05:42:04.089Z,4
2018-08-17T05:43:14.252Z,4
2018-08-17T05:44:23.282Z,0
2018-08-17T05:45:32.679Z,4
2018-08-17T05:46:41.945Z,4
2018-08-17T05:47:51.033Z,0
2018-08-17T05:49:00.136Z,0
2018-08-17T05:50:09.702Z,0
2018-08-17T05:51:19.533Z,0
2018-08-17T05:52:29.117Z,0
2018-08-17T05:53:38.235Z,0
2018-08-17T05:54:47.338Z,0
2018-08-17T05:55:56.173Z,0
2018-08-17T05:57:05.229Z,0
2018-08-17T05:58:14.561Z,0
2018-08-17T05:59:24.104Z,0
2018-08-17T06:00:33.728Z,0
2018-08-17T06:01:43.308Z,0
2018-08-17T06:02:52.109Z,0
2018-08-17T06:04:02.404Z,0
2018-08-17T06:05:11.744Z,0
2018-08-17T06:06:21.046Z,0
2018-08-17T06:07:30.236Z,0
2018-08-17T06:08:39.348Z,0
2018-08-17T06:09:48.673Z,0
2018-08-17T06:10:58.483Z,0
2018-08-17T06:12:08.001Z,0
2018-08-17T06:13:17.382Z,0
2018-08-17T06:14:26.949Z,4
2018-08-17T06:15:36.249Z,0
2018-08-17T06:16:45.586Z,0
2018-08-17T06:17:54.968Z,4
2018-08-17T06:19:04.007Z,4
2018-08-17T06:20:13.585Z,4
2018-08-17T06:21:22.943Z,4
2018-08-17T06:22:32.497Z,0
2018-08-17T06:23:41.825Z,0
2018-08-17T06:24:50.598Z,0
2018-08-17T06:26:00.226Z,4
2018-08-17T06:27:09.798Z,4
2018-08-17T06:28:19.199Z,4
2018-08-17T06:29:28.760Z,4
2018-08-17T06:30:38.381Z,4
2018-08-17T06:31:48.401Z,4
2018-08-17T06:32:57.068Z,4
2018-08-17T06:34:06.752Z,4
2018-08-17T06:35:16.696Z,0
2018-08-17T06:36:26.122Z,4
2018-08-17T06:37:35.084Z,4
2018-08-17T06:38:44.732Z,0
2018-08-17T06:39:53.858Z,0
2018-08-17T06:41:02.643Z,0
2018-08-17T06:42:12.035Z,0
2018-08-17T06:43:21.619Z,0
2018-08-17T06:44:31.514Z,0
2018-08-17T06:45:40.604Z,0
2018-08-17T06:46:49.917Z,0
2018-08-17T06:47:58.736Z,0
2018-08-17T06:49:08.172Z,0
2018-08-17T06:50:17.499Z,0
2018-08-17T06:51:27.033Z,4
2018-08-17T06:52:35.909Z,4
2018-08-17T06:53:45.317Z,4
2018-08-17T06:54:54.160Z,4
2018-08-17T06:56:03.902Z,4
2018-08-17T06:57:13.295Z,4
2018-08-17T06:58:22.394Z,4
2018-08-17T06:59:31.970Z,4
2018-08-17T07:00:41.082Z,4
2018-08-17T07:01:50.245Z,0
2018-08-17T07:02:59.546Z,0
2018-08-17T07:04:09.219Z,0
2018-08-17T07:05:18.842Z,0
2018-08-17T07:06:28.471Z,0
2018-08-17T07:07:37.412Z,0
2018-08-17T07:08:47.356Z,4
2018-08-17T07:09:56.470Z,4
2018-08-17T07:11:05.600Z,0
2018-08-17T07:12:14.913Z,4
2018-08-17T07:13:24.447Z,4
2018-08-17T07:14:33.374Z,4
2018-08-17T07:15:42.731Z,4
2018-08-17T07:16:52.556Z,4
2018-08-17T07:18:02.140Z,8
2018-08-17T07:19:11.472Z,4
2018-08-17T07:20:20.792Z,4
2018-08-17T07:21:30.432Z,4
2018-08-17T07:22:39.984Z,8
2018-08-17T07:23:50.090Z,4
2018-08-17T07:24:59.245Z,4
2018-08-17T07:26:08.606Z,8
2018-08-17T07:27:17.992Z,4
2018-08-17T07:28:27.369Z,4
2018-08-17T07:29:37.170Z,4
2018-08-17T07:30:46.518Z,8
2018-08-17T07:31:56.425Z,4
2018-08-17T07:33:05.626Z,4
2018-08-17T07:34:15.010Z,4
2018-08-17T07:35:24.306Z,8
2018-08-17T07:36:33.266Z,4
2018-08-17T07:37:42.372Z,4
2018-08-17T07:38:51.663Z,4
2018-08-17T07:40:01.470Z,4
2018-08-17T07:41:10.518Z,8
2018-08-17T07:42:20.055Z,8
2018-08-17T07:43:29.613Z,8
2018-08-17T07:44:39.412Z,8
2018-08-17T07:45:48.764Z,8
2018-08-17T07:46:58.168Z,4
2018-08-17T07:48:07.543Z,4
2018-08-17T07:49:16.724Z,4
2018-08-17T07:50:25.978Z,4
2018-08-17T07:51:35.949Z,4
2018-08-17T07:52:45.006Z,8
2018-08-17T07:53:54.653Z,4
2018-08-17T07:55:03.676Z,8
2018-08-17T07:56:13.305Z,8
2018-08-17T07:57:22.906Z,4
2018-08-17T07:58:32.316Z,8
2018-08-17T07:59:41.614Z,8
2018-08-17T08:00:50.655Z,12
2018-08-17T08:01:59.915Z,12
2018-08-17T08:03:09.242Z,12
2018-08-17T08:04:18.529Z,8
2018-08-17T08:05:28.095Z,8
2018-08-17T08:06:37.653Z,8
2018-08-17T08:07:47.400Z,8
2018-08-17T08:08:56.468Z,8
2018-08-17T08:10:06.189Z,8
2018-08-17T08:11:16.250Z,12
2018-08-17T08:12:26.157Z,8
2018-08-17T08:13:35.791Z,12
2018-08-17T08:14:45.773Z,12
2018-08-17T08:15:55.390Z,16
2018-08-17T08:17:04.476Z,28
2018-08-17T08:18:14.203Z,24
2018-08-17T08:19:24.092Z,40
2018-08-17T08:20:33.860Z,32
2018-08-17T08:21:43.015Z,16
2018-08-17T08:22:52.057Z,20
2018-08-17T08:24:01.349Z,12
2018-08-17T08:25:10.883Z,12
2018-08-17T08:26:20.726Z,8
2018-08-17T08:27:30.866Z,4
2018-08-17T08:28:40.460Z,8
2018-08-17T08:29:49.220Z,4
2018-08-17T08:30:58.511Z,4
2018-08-17T08:32:08.332Z,4
2018-08-17T08:33:17.706Z,4
2018-08-17T08:34:27.355Z,8
2018-08-17T08:35:36.696Z,4
2018-08-17T08:36:46.041Z,8
2018-08-17T08:37:56.172Z,8
2018-08-17T08:39:05.942Z,8
2018-08-17T08:40:15.215Z,8
2018-08-17T08:41:24.291Z,12
2018-08-17T08:42:33.418Z,12
2018-08-17T08:43:43.161Z,8
2018-08-17T08:44:52.481Z,8
2018-08-17T08:46:02.560Z,8
2018-08-17T08:47:12.054Z,8
2018-08-17T08:48:21.401Z,12
2018-08-17T08:49:31.531Z,12
2018-08-17T08:50:41.649Z,12
2018-08-17T08:51:50.665Z,8
2018-08-17T08:53:00.217Z,12
2018-08-17T08:54:09.850Z,8
2018-08-17T08:55:19.482Z,8
2018-08-17T08:56:28.783Z,12
2018-08-17T08:57:38.169Z,12
2018-08-17T08:58:47.673Z,12
2018-08-17T08:59:56.674Z,12
2018-08-17T09:01:05.482Z,12
2018-08-17T09:02:14.809Z,12
2018-08-17T09:03:23.863Z,12
2018-08-17T09:04:33.748Z,12
2018-08-17T09:05:43.259Z,12
2018-08-17T09:06:52.559Z,16
2018-08-17T09:08:01.828Z,16
2018-08-17T09:09:11.441Z,16
2018-08-17T09:10:20.609Z,20
2018-08-17T09:11:29.958Z,16
2018-08-17T09:12:39.098Z,16
2018-08-17T09:13:48.978Z,16
2018-08-17T09:14:58.653Z,16
2018-08-17T09:16:08.059Z,12
2018-08-17T09:17:17.687Z,12
2018-08-17T09:18:27.019Z,12
2018-08-17T09:19:36.350Z,8
2018-08-17T09:20:46.233Z,4
2018-08-17T09:21:55.802Z,8
2018-08-17T09:23:05.977Z,8
2018-08-17T09:24:14.745Z,8
2018-08-17T09:25:24.236Z,12
2018-08-17T09:26:33.778Z,12
2018-08-17T09:27:43.341Z,8
2018-08-17T09:28:52.126Z,12
2018-08-17T09:30:01.564Z,12
2018-08-17T09:31:11.442Z,12
2018-08-17T09:32:20.824Z,16
2018-08-17T09:33:30.111Z,16
2018-08-17T09:34:39.134Z,12
2018-08-17T09:35:48.933Z,12
2018-08-17T09:36:58.496Z,12
2018-08-17T09:38:08.019Z,12
2018-08-17T09:39:17.347Z,12
2018-08-17T09:40:26.355Z,12
2018-08-17T09:41:36.239Z,12
2018-08-17T09:42:45.912Z,12
2018-08-17T09:43:54.927Z,12
2018-08-17T09:45:04.205Z,12
2018-08-17T09:46:13.539Z,12
2018-08-17T09:47:23.108Z,8
2018-08-17T09:48:32.653Z,8
2018-08-17T09:49:42.032Z,8
2018-08-17T09:50:51.107Z,8
2018-08-17T09:52:00.905Z,8
2018-08-17T09:53:10.669Z,8
2018-08-17T09:54:19.983Z,8
2018-08-17T09:55:30.048Z,8
2018-08-17T09:56:39.575Z,8
2018-08-17T09:57:49.256Z,4
2018-08-17T09:58:59.102Z,4
2018-08-17T10:00:08.447Z,8
2018-08-17T10:01:17.434Z,4
2018-08-17T10:02:26.953Z,8
2018-08-17T10:03:36.253Z,8
2018-08-17T10:04:45.790Z,8
2018-08-17T10:05:55.601Z,8
2018-08-17T10:07:05.187Z,8
2018-08-17T10:08:14.814Z,8
2018-08-17T10:09:24.148Z,8
2018-08-17T10:10:33.164Z,8
2018-08-17T10:11:42.953Z,8
2018-08-17T10:12:52.446Z,12
2018-08-17T10:14:02.165Z,12
2018-08-17T10:15:11.957Z,16
2018-08-17T10:16:21.485Z,16
2018-08-17T10:17:31.026Z,16
2018-08-17T10:18:40.418Z,16
2018-08-17T10:19:50.185Z,16
2018-08-17T10:21:00.994Z,16
2018-08-17T10:22:12.166Z,16
2018-08-17T10:23:22.304Z,16
2018-08-17T10:24:31.530Z,16
2018-08-17T10:25:41.096Z,16
2018-08-17T10:26:50.376Z,16
2018-08-17T10:28:00.322Z,16
2018-08-17T10:29:09.602Z,16
2018-08-17T10:30:19.130Z,20
2018-08-17T10:31:28.662Z,20
2018-08-17T10:32:38.647Z,24
2018-08-17T10:33:47.984Z,24
2018-08-17T10:34:57.457Z,24
2018-08-17T10:36:06.831Z,24
2018-08-17T10:37:16.069Z,20
2018-08-17T10:38:25.597Z,24
2018-08-17T10:39:35.232Z,24
2018-08-17T10:40:44.990Z,24
2018-08-17T10:41:54.701Z,20
2018-08-17T10:43:03.864Z,16
2018-08-17T10:44:13.187Z,16
2018-08-17T10:45:22.178Z,16
2018-08-17T10:46:31.275Z,20
2018-08-17T10:47:40.379Z,24
2018-08-17T10:48:50.442Z,24
2018-08-17T10:50:00.313Z,24
2018-08-17T10:51:09.564Z,24
2018-08-17T10:52:18.806Z,20
2018-08-17T10:53:27.772Z,20
2018-08-17T10:54:37.089Z,20
2018-08-17T10:55:46.993Z,20
2018-08-17T10:56:56.292Z,16
2018-08-17T10:58:06.007Z,16
2018-08-17T10:59:15.370Z,16
2018-08-17T11:00:24.595Z,16
2018-08-17T11:01:33.383Z,16
2018-08-17T11:02:42.660Z,20
2018-08-17T11:03:52.530Z,20
2018-08-17T11:05:01.716Z,16
2018-08-17T11:06:11.265Z,16
2018-08-17T11:07:20.318Z,12
2018-08-17T11:08:29.057Z,12
2018-08-17T11:09:38.388Z,12
2018-08-17T11:10:47.434Z,12
2018-08-17T11:11:56.960Z,12
2018-08-17T11:13:06.796Z,12
2018-08-17T11:14:16.453Z,16
2018-08-17T11:15:26.028Z,20
2018-08-17T11:16:35.346Z,20
2018-08-17T11:17:44.819Z,24
2018-08-17T11:18:54.525Z,20
2018-08-17T11:20:03.783Z,24
2018-08-17T11:21:13.112Z,24
2018-08-17T11:22:22.649Z,24
2018-08-17T11:23:31.927Z,16
2018-08-17T11:24:41.067Z,20
2018-08-17T11:25:50.887Z,16
2018-08-17T11:27:00.144Z,16
2018-08-17T11:28:09.904Z,16
2018-08-17T11:29:19.430Z,16
2018-08-17T11:30:28.672Z,16
2018-08-17T11:31:38.251Z,16
2018-08-17T11:32:47.521Z,12
2018-08-17T11:33:57.178Z,12
2018-08-17T11:35:06.825Z,12
2018-08-17T11:36:16.144Z,12
2018-08-17T11:37:25.725Z,12
2018-08-17T11:38:35.032Z,16
2018-08-17T11:39:45.079Z,16
2018-08-17T11:40:54.302Z,12
2018-08-17T11:42:03.943Z,12
2018-08-17T11:43:13.481Z,16
2018-08-17T11:44:23.302Z,12
2018-08-17T11:45:32.817Z,12
2018-08-17T11:46:41.833Z,16
2018-08-17T11:47:51.136Z,20
2018-08-17T11:49:00.671Z,16
2018-08-17T11:50:10.187Z,12
2018-08-17T11:51:20.060Z,12
2018-08-17T11:52:29.047Z,12
2018-08-17T11:53:38.887Z,8
2018-08-17T11:54:49.345Z,8
2018-08-17T11:55:58.983Z,12
2018-08-17T11:57:08.240Z,12
2018-08-17T11:58:17.778Z,12
2018-08-17T11:59:26.547Z,12
2018-08-17T12:00:35.269Z,12
2018-08-17T12:01:44.621Z,8
2018-08-17T12:02:54.750Z,12
2018-08-17T12:04:04.579Z,12
2018-08-17T12:05:13.949Z,12
2018-08-17T12:06:23.228Z,12
2018-08-17T12:07:32.837Z,16
2018-08-17T12:08:41.968Z,12
2018-08-17T12:09:51.833Z,12
2018-08-17T12:11:01.338Z,16
2018-08-17T12:12:11.201Z,16
2018-08-17T12:13:20.451Z,16
2018-08-17T12:14:29.818Z,16
2018-08-17T12:15:39.048Z,12
2018-08-17T12:16:48.283Z,16
2018-08-17T12:17:57.571Z,16
2018-08-17T12:19:07.430Z,16
2018-08-17T12:20:17.235Z,12
2018-08-17T12:21:26.611Z,16
2018-08-17T12:22:36.383Z,16
2018-08-17T12:23:45.885Z,12
2018-08-17T12:24:55.712Z,12
2018-08-17T12:26:05.246Z,16
2018-08-17T12:27:14.780Z,12
2018-08-17T12:28:24.590Z,12
2018-08-17T12:29:34.081Z,12
2018-08-17T12:30:43.022Z,12
2018-08-17T12:31:52.629Z,12
2018-08-17T12:33:01.897Z,12
2018-08-17T12:34:11.729Z,12
2018-08-17T12:35:20.768Z,12
2018-08-17T12:36:30.514Z,12
2018-08-17T12:37:39.754Z,16
2018-08-17T12:38:48.750Z,12
2018-08-17T12:39:57.547Z,12
2018-08-17T12:41:07.059Z,12
2018-08-17T12:42:16.566Z,12
2018-08-17T12:43:25.839Z,12
2018-08-17T12:44:35.141Z,12
2018-08-17T12:45:44.912Z,12
2018-08-17T12:46:54.916Z,16
2018-08-17T12:48:04.183Z,12
2018-08-17T12:49:13.791Z,12
2018-08-17T12:50:22.810Z,12
2018-08-17T12:51:32.022Z,12
2018-08-17T12:52:40.814Z,12
2018-08-17T12:53:49.823Z,12
2018-08-17T12:54:59.097Z,16
2018-08-17T12:56:08.206Z,16
2018-08-17T12:57:17.169Z,16
2018-08-17T12:58:26.655Z,12
2018-08-17T12:59:35.984Z,12
2018-08-17T13:00:45.480Z,12
2018-08-17T13:01:55.005Z,12
2018-08-17T13:03:04.275Z,12
2018-08-17T13:04:13.813Z,12
2018-08-17T13:05:23.292Z,12
2018-08-17T13:06:32.273Z,16
2018-08-17T13:07:42.092Z,12
2018-08-17T13:08:51.614Z,12
2018-08-17T13:10:00.392Z,12
2018-08-17T13:11:10.264Z,16
2018-08-17T13:12:19.568Z,12
2018-08-17T13:13:29.411Z,12
2018-08-17T13:14:39.003Z,16
2018-08-17T13:15:48.280Z,20
2018-08-17T13:16:57.573Z,20
2018-08-17T13:18:07.454Z,28
2018-08-17T13:19:16.920Z,32
2018-08-17T13:20:26.425Z,24
2018-08-17T13:21:35.389Z,24
2018-08-17T13:22:45.237Z,24
2018-08-17T13:23:55.041Z,20
2018-08-17T13:25:04.302Z,20
2018-08-17T13:26:13.327Z,16
2018-08-17T13:27:22.790Z,20
2018-08-17T13:28:32.328Z,20
2018-08-17T13:29:41.294Z,20
2018-08-17T13:30:51.074Z,20
2018-08-17T13:32:00.551Z,36
2018-08-17T13:33:10.096Z,44
2018-08-17T13:34:19.371Z,24
2018-08-17T13:35:28.708Z,44
2018-08-17T13:36:38.021Z,48
2018-08-17T13:37:47.250Z,44
2018-08-17T13:38:56.578Z,32
2018-08-17T13:40:06.815Z,52
2018-08-17T13:41:16.036Z,24
2018-08-17T13:42:26.530Z,32
2018-08-17T13:43:35.855Z,28
2018-08-17T13:44:45.088Z,28
2018-08-17T13:45:54.362Z,20
2018-08-17T13:47:03.891Z,20
2018-08-17T13:48:12.912Z,16
2018-08-17T13:49:22.451Z,20
2018-08-17T13:50:32.013Z,16
2018-08-17T13:51:41.570Z,28
2018-08-17T13:52:50.946Z,56
2018-08-17T13:54:00.735Z,48
2018-08-17T13:55:10.260Z,32
2018-08-17T13:56:19.784Z,40
2018-08-17T13:57:29.595Z,48
2018-08-17T13:58:38.622Z,44
2018-08-17T13:59:47.594Z,20
2018-08-17T14:00:57.066Z,24
2018-08-17T14:02:06.658Z,44
2018-08-17T14:03:16.217Z,24
2018-08-17T14:04:25.262Z,20
2018-08-17T14:05:34.733Z,20
2018-08-17T14:06:44.588Z,20
2018-08-17T14:07:53.524Z,16
2018-08-17T14:09:03.064Z,20
2018-08-17T14:10:12.630Z,60
2018-08-17T14:11:22.468Z,64
2018-08-17T14:12:32.044Z,64
2018-08-17T14:13:41.493Z,64
2018-08-17T14:14:51.256Z,60
2018-08-17T14:16:00.043Z,64
2018-08-17T14:17:10.061Z,64
2018-08-17T14:18:19.720Z,28
2018-08-17T14:19:29.241Z,64
2018-08-17T14:20:38.999Z,56
2018-08-17T14:21:47.954Z,32
2018-08-17T14:22:56.933Z,36
2018-08-17T14:24:05.683Z,20
2018-08-17T14:25:14.365Z,16
2018-08-17T14:26:23.341Z,32
2018-08-17T14:27:32.836Z,20
2018-08-17T14:28:42.178Z,20
2018-08-17T14:29:51.769Z,16
2018-08-17T14:31:01.017Z,12
2018-08-17T14:32:10.781Z,12
2018-08-17T14:33:20.158Z,12
2018-08-17T14:34:30.251Z,8
2018-08-17T14:35:39.076Z,12
2018-08-17T14:36:48.450Z,12
2018-08-17T14:37:58.089Z,12
2018-08-17T14:39:07.464Z,28
2018-08-17T14:40:16.752Z,12
2018-08-17T14:41:26.689Z,16
2018-08-17T14:42:35.950Z,12
2018-08-17T14:43:45.248Z,12
2018-08-17T14:44:54.254Z,12
2018-08-17T14:46:03.556Z,12
2018-08-17T14:47:13.133Z,16
2018-08-17T14:48:22.355Z,12
2018-08-17T14:49:31.888Z,12
2018-08-17T14:50:40.678Z,12
2018-08-17T14:51:50.304Z,12
2018-08-17T14:53:00.019Z,12
2018-08-17T14:54:09.815Z,12
2018-08-17T14:55:19.040Z,36
2018-08-17T14:56:28.609Z,36
2018-08-17T14:57:37.572Z,36
2018-08-17T14:58:46.870Z,32
2018-08-17T14:59:56.140Z,28
2018-08-17T15:01:06.096Z,24
2018-08-17T15:02:15.462Z,20
2018-08-17T15:03:24.419Z,20
2018-08-17T15:04:33.720Z,16
2018-08-17T15:05:42.717Z,16
2018-08-17T15:06:51.749Z,16
2018-08-17T15:08:00.787Z,12
2018-08-17T15:09:10.049Z,16
2018-08-17T15:10:19.106Z,12
2018-08-17T15:11:28.391Z,16
2018-08-17T15:12:37.483Z,12
2018-08-17T15:13:47.414Z,12
2018-08-17T15:14:56.937Z,12
2018-08-17T15:16:06.443Z,12
2018-08-17T15:17:16.194Z,12
2018-08-17T15:18:25.427Z,12
2018-08-17T15:19:34.684Z,12
2018-08-17T15:20:43.841Z,12
2018-08-17T15:21:53.123Z,8
2018-08-17T15:23:01.937Z,8
2018-08-17T15:24:11.220Z,8
2018-08-17T15:25:20.947Z,12
2018-08-17T15:26:30.291Z,12
2018-08-17T15:27:39.638Z,12
2018-08-17T15:28:48.758Z,12
2018-08-17T15:29:58.794Z,8
2018-08-17T15:31:07.812Z,8
2018-08-17T15:32:17.327Z,8
2018-08-17T15:33:26.332Z,8
2018-08-17T15:34:35.825Z,8
2018-08-17T15:35:45.319Z,12
2018-08-17T15:36:54.355Z,12
2018-08-17T15:38:03.510Z,8
2018-08-17T15:39:12.546Z,8
2018-08-17T15:40:21.547Z,8
2018-08-17T15:41:31.010Z,8
2018-08-17T15:42:40.765Z,8
2018-08-17T15:43:50.078Z,8
2018-08-17T15:44:59.690Z,8
2018-08-17T15:46:08.991Z,12
2018-08-17T15:47:18.546Z,8
2018-08-17T15:48:27.792Z,8
2018-08-17T15:49:37.085Z,8
2018-08-17T15:50:46.159Z,8
2018-08-17T15:51:55.726Z,12
2018-08-17T15:53:05.614Z,12
2018-08-17T15:54:14.673Z,8
2018-08-17T15:55:23.641Z,12
2018-08-17T15:56:33.222Z,12
2018-08-17T15:57:43.119Z,8
2018-08-17T15:58:53.603Z,8
2018-08-17T16:00:02.857Z,12
2018-08-17T16:01:13.219Z,8
2018-08-17T16:02:22.395Z,8
2018-08-17T16:03:31.691Z,8
2018-08-17T16:04:40.849Z,8
2018-08-17T16:05:50.411Z,8
2018-08-17T16:06:59.099Z,8
2018-08-17T16:08:08.073Z,12
2018-08-17T16:09:17.091Z,12
2018-08-17T16:10:26.971Z,8
2018-08-17T16:11:36.581Z,8
2018-08-17T16:12:45.815Z,8
2018-08-17T16:13:55.536Z,8
2018-08-17T16:15:05.139Z,12
2018-08-17T16:16:14.894Z,12
2018-08-17T16:17:24.832Z,8
2018-08-17T16:18:34.057Z,12
2018-08-17T16:19:43.025Z,8
2018-08-17T16:20:52.252Z,8
2018-08-17T16:22:01.756Z,8
2018-08-17T16:23:11.240Z,8
2018-08-17T16:24:20.227Z,8
2018-08-17T16:25:29.473Z,8
2018-08-17T16:26:38.926Z,8
2018-08-17T16:27:47.947Z,8
2018-08-17T16:28:56.933Z,8
2018-08-17T16:30:06.200Z,8
2018-08-17T16:31:15.777Z,4
2018-08-17T16:32:25.311Z,4
2018-08-17T16:33:34.593Z,4
2018-08-17T16:34:43.866Z,4
2018-08-17T16:35:53.377Z,4
2018-08-17T16:37:03.251Z,4
2018-08-17T16:38:12.376Z,4
2018-08-17T16:39:21.862Z,8
2018-08-17T16:40:31.624Z,4
2018-08-17T16:41:41.084Z,4
2018-08-17T16:42:50.320Z,4
2018-08-17T16:43:59.635Z,4
2018-08-17T16:45:09.137Z,4
2018-08-17T16:46:18.638Z,4
2018-08-17T16:47:28.005Z,4
2018-08-17T16:48:40.823Z,4
2018-08-17T16:49:50.467Z,8
2018-08-17T16:50:59.432Z,8
2018-08-17T16:52:08.755Z,4